sensor_id;sensor_type;location;lat;lon;timestamp;P1;durP1;ratioP1;P2;durP2;ratioP2
59167;SDS011;70412;55.048;73.268;2023-12-20T00:00:23;27.27;;;6.97;;
59167;SDS011;70412;55.048;73.268;2023-12-20T00:03:25;27.23;;;6.95;;
59167;SDS011;70412;55.048;73.268;2023-12-20T00:06:30;27.93;;;8.23;;
59167;SDS011;70412;55.048;73.268;2023-12-20T00:09:32;25.95;;;7.38;;
59167;SDS011;70412;55.048;73.268;2023-12-20T00:12:35;20.73;;;7.43;;
59167;SDS011;70412;55.048;73.268;2023-12-20T00:15:37;22.98;;;8.60;;
59167;SDS011;70412;55.048;73.268;2023-12-20T00:18:39;30.57;;;9.10;;
59167;SDS011;70412;55.048;73.268;2023-12-20T00:21:42;25.85;;;7.80;;
59167;SDS011;70412;55.048;73.268;2023-12-20T00:24:44;23.90;;;8.30;;
59167;SDS011;70412;55.048;73.268;2023-12-20T00:27:46;32.92;;;9.02;;
59167;SDS011;70412;55.048;73.268;2023-12-20T00:30:49;31.73;;;9.85;;
59167;SDS011;70412;55.048;73.268;2023-12-20T00:33:51;28.63;;;9.40;;
59167;SDS011;70412;55.048;73.268;2023-12-20T00:36:53;31.58;;;8.48;;
59167;SDS011;70412;55.048;73.268;2023-12-20T00:39:56;28.48;;;8.80;;
59167;SDS011;70412;55.048;73.268;2023-12-20T00:42:59;28.05;;;9.85;;
59167;SDS011;70412;55.048;73.268;2023-12-20T00:46:01;33.42;;;9.07;;
59167;SDS011;70412;55.048;73.268;2023-12-20T00:49:05;36.53;;;10.75;;
59167;SDS011;70412;55.048;73.268;2023-12-20T00:52:08;33.95;;;10.48;;
59167;SDS011;70412;55.048;73.268;2023-12-20T00:55:11;29.92;;;9.07;;
59167;SDS011;70412;55.048;73.268;2023-12-20T00:58:13;29.35;;;10.25;;
59167;SDS011;70412;55.048;73.268;2023-12-20T01:01:17;39.08;;;11.38;;
59167;SDS011;70412;55.048;73.268;2023-12-20T01:04:19;34.63;;;11.43;;
59167;SDS011;70412;55.048;73.268;2023-12-20T01:07:21;38.13;;;12.48;;
59167;SDS011;70412;55.048;73.268;2023-12-20T01:10:24;34.33;;;12.43;;
59167;SDS011;70412;55.048;73.268;2023-12-20T01:13:29;43.10;;;13.68;;
59167;SDS011;70412;55.048;73.268;2023-12-20T01:16:32;45.35;;;12.98;;
59167;SDS011;70412;55.048;73.268;2023-12-20T01:19:34;51.75;;;13.27;;
59167;SDS011;70412;55.048;73.268;2023-12-20T01:22:37;46.22;;;13.35;;
59167;SDS011;70412;55.048;73.268;2023-12-20T01:25:39;48.35;;;13.20;;
59167;SDS011;70412;55.048;73.268;2023-12-20T01:28:42;50.17;;;13.75;;
59167;SDS011;70412;55.048;73.268;2023-12-20T01:31:44;55.35;;;14.07;;
59167;SDS011;70412;55.048;73.268;2023-12-20T01:34:47;49.30;;;14.85;;
59167;SDS011;70412;55.048;73.268;2023-12-20T01:37:50;48.63;;;13.75;;
59167;SDS011;70412;55.048;73.268;2023-12-20T01:40:52;59.35;;;15.15;;
59167;SDS011;70412;55.048;73.268;2023-12-20T01:43:55;54.53;;;14.82;;
59167;SDS011;70412;55.048;73.268;2023-12-20T01:46:57;55.28;;;14.98;;
59167;SDS011;70412;55.048;73.268;2023-12-20T01:49:59;51.85;;;15.05;;
59167;SDS011;70412;55.048;73.268;2023-12-20T01:53:05;50.38;;;13.90;;
59167;SDS011;70412;55.048;73.268;2023-12-20T01:56:11;54.37;;;15.50;;
59167;SDS011;70412;55.048;73.268;2023-12-20T01:59:13;47.05;;;14.23;;
59167;SDS011;70412;55.048;73.268;2023-12-20T02:02:16;52.13;;;15.27;;
59167;SDS011;70412;55.048;73.268;2023-12-20T02:05:19;52.47;;;14.65;;
59167;SDS011;70412;55.048;73.268;2023-12-20T02:08:22;56.03;;;15.85;;
59167;SDS011;70412;55.048;73.268;2023-12-20T02:11:25;62.63;;;15.90;;
59167;SDS011;70412;55.048;73.268;2023-12-20T02:14:27;60.33;;;16.27;;
59167;SDS011;70412;55.048;73.268;2023-12-20T02:17:31;60.63;;;15.87;;
59167;SDS011;70412;55.048;73.268;2023-12-20T02:20:34;53.10;;;14.70;;
59167;SDS011;70412;55.048;73.268;2023-12-20T02:23:36;51.17;;;14.57;;
59167;SDS011;70412;55.048;73.268;2023-12-20T02:26:39;56.97;;;15.10;;
59167;SDS011;70412;55.048;73.268;2023-12-20T02:29:42;54.33;;;14.27;;
59167;SDS011;70412;55.048;73.268;2023-12-20T02:32:45;45.28;;;14.43;;
59167;SDS011;70412;55.048;73.268;2023-12-20T02:35:47;53.20;;;15.35;;
59167;SDS011;70412;55.048;73.268;2023-12-20T02:38:50;50.63;;;14.70;;
59167;SDS011;70412;55.048;73.268;2023-12-20T02:41:52;52.67;;;14.90;;
59167;SDS011;70412;55.048;73.268;2023-12-20T02:44:55;50.67;;;13.20;;
59167;SDS011;70412;55.048;73.268;2023-12-20T02:47:57;48.55;;;12.95;;
59167;SDS011;70412;55.048;73.268;2023-12-20T02:51:00;45.25;;;13.05;;
59167;SDS011;70412;55.048;73.268;2023-12-20T02:54:02;47.58;;;12.70;;
59167;SDS011;70412;55.048;73.268;2023-12-20T02:57:05;51.95;;;11.65;;
59167;SDS011;70412;55.048;73.268;2023-12-20T03:00:09;49.50;;;13.57;;
59167;SDS011;70412;55.048;73.268;2023-12-20T03:03:12;35.08;;;12.05;;
59167;SDS011;70412;55.048;73.268;2023-12-20T03:06:18;42.40;;;12.95;;
59167;SDS011;70412;55.048;73.268;2023-12-20T03:09:21;41.30;;;12.95;;
59167;SDS011;70412;55.048;73.268;2023-12-20T03:12:23;47.53;;;13.65;;
59167;SDS011;70412;55.048;73.268;2023-12-20T03:15:28;41.40;;;13.57;;
59167;SDS011;70412;55.048;73.268;2023-12-20T03:18:31;39.00;;;13.05;;
59167;SDS011;70412;55.048;73.268;2023-12-20T03:21:33;48.05;;;14.55;;
59167;SDS011;70412;55.048;73.268;2023-12-20T03:24:35;38.67;;;13.52;;
59167;SDS011;70412;55.048;73.268;2023-12-20T03:27:38;41.38;;;14.25;;
59167;SDS011;70412;55.048;73.268;2023-12-20T03:30:40;49.22;;;16.13;;
59167;SDS011;70412;55.048;73.268;2023-12-20T03:33:43;44.72;;;16.10;;
59167;SDS011;70412;55.048;73.268;2023-12-20T03:36:45;49.95;;;14.88;;
59167;SDS011;70412;55.048;73.268;2023-12-20T03:39:50;45.07;;;13.97;;
59167;SDS011;70412;55.048;73.268;2023-12-20T03:42:53;42.17;;;14.18;;
59167;SDS011;70412;55.048;73.268;2023-12-20T03:45:55;48.75;;;16.20;;
59167;SDS011;70412;55.048;73.268;2023-12-20T03:48:57;44.70;;;15.35;;
59167;SDS011;70412;55.048;73.268;2023-12-20T03:51:59;47.38;;;14.98;;
59167;SDS011;70412;55.048;73.268;2023-12-20T03:55:02;51.65;;;16.80;;
59167;SDS011;70412;55.048;73.268;2023-12-20T03:58:04;43.78;;;15.48;;
59167;SDS011;70412;55.048;73.268;2023-12-20T04:01:10;51.60;;;18.35;;
59167;SDS011;70412;55.048;73.268;2023-12-20T04:04:15;50.35;;;17.65;;
59167;SDS011;70412;55.048;73.268;2023-12-20T04:07:17;56.75;;;18.08;;
59167;SDS011;70412;55.048;73.268;2023-12-20T04:10:20;64.72;;;19.42;;
59167;SDS011;70412;55.048;73.268;2023-12-20T04:13:22;68.25;;;22.58;;
59167;SDS011;70412;55.048;73.268;2023-12-20T04:16:25;56.25;;;17.98;;
59167;SDS011;70412;55.048;73.268;2023-12-20T04:19:27;48.63;;;16.10;;
59167;SDS011;70412;55.048;73.268;2023-12-20T04:22:30;55.08;;;16.73;;
59167;SDS011;70412;55.048;73.268;2023-12-20T04:25:32;53.17;;;18.52;;
59167;SDS011;70412;55.048;73.268;2023-12-20T04:28:34;64.03;;;22.67;;
59167;SDS011;70412;55.048;73.268;2023-12-20T04:31:36;67.20;;;22.83;;
59167;SDS011;70412;55.048;73.268;2023-12-20T04:34:39;91.28;;;28.67;;
59167;SDS011;70412;55.048;73.268;2023-12-20T04:37:41;75.78;;;26.05;;
59167;SDS011;70412;55.048;73.268;2023-12-20T04:40:44;49.70;;;20.42;;
59167;SDS011;70412;55.048;73.268;2023-12-20T04:43:46;55.55;;;21.08;;
59167;SDS011;70412;55.048;73.268;2023-12-20T04:46:49;61.47;;;23.48;;
59167;SDS011;70412;55.048;73.268;2023-12-20T04:49:51;58.78;;;22.23;;
59167;SDS011;70412;55.048;73.268;2023-12-20T04:52:54;51.35;;;20.00;;
59167;SDS011;70412;55.048;73.268;2023-12-20T04:55:57;52.25;;;18.67;;
59167;SDS011;70412;55.048;73.268;2023-12-20T04:58:59;50.53;;;18.87;;
59167;SDS011;70412;55.048;73.268;2023-12-20T05:02:02;49.42;;;19.65;;
59167;SDS011;70412;55.048;73.268;2023-12-20T05:05:04;52.97;;;17.90;;
59167;SDS011;70412;55.048;73.268;2023-12-20T05:08:07;53.38;;;19.00;;
59167;SDS011;70412;55.048;73.268;2023-12-20T05:11:09;56.13;;;20.02;;
59167;SDS011;70412;55.048;73.268;2023-12-20T05:14:12;53.65;;;17.88;;
59167;SDS011;70412;55.048;73.268;2023-12-20T05:17:14;59.20;;;20.63;;
59167;SDS011;70412;55.048;73.268;2023-12-20T05:20:17;56.55;;;19.48;;
59167;SDS011;70412;55.048;73.268;2023-12-20T05:23:19;53.55;;;19.80;;
59167;SDS011;70412;55.048;73.268;2023-12-20T05:26:22;53.88;;;20.20;;
59167;SDS011;70412;55.048;73.268;2023-12-20T05:29:24;57.15;;;20.17;;
59167;SDS011;70412;55.048;73.268;2023-12-20T05:32:26;69.13;;;22.05;;
59167;SDS011;70412;55.048;73.268;2023-12-20T05:35:29;48.47;;;18.75;;
59167;SDS011;70412;55.048;73.268;2023-12-20T05:38:31;48.08;;;18.40;;
59167;SDS011;70412;55.048;73.268;2023-12-20T05:41:34;102.32;;;32.17;;
59167;SDS011;70412;55.048;73.268;2023-12-20T05:44:37;97.28;;;29.50;;
59167;SDS011;70412;55.048;73.268;2023-12-20T05:47:40;91.55;;;27.83;;
59167;SDS011;70412;55.048;73.268;2023-12-20T05:50:43;69.38;;;24.70;;
59167;SDS011;70412;55.048;73.268;2023-12-20T05:53:45;87.57;;;28.13;;
59167;SDS011;70412;55.048;73.268;2023-12-20T05:56:47;103.72;;;33.60;;
59167;SDS011;70412;55.048;73.268;2023-12-20T05:59:50;55.70;;;19.75;;
59167;SDS011;70412;55.048;73.268;2023-12-20T06:02:52;54.75;;;19.05;;
59167;SDS011;70412;55.048;73.268;2023-12-20T06:05:55;54.33;;;19.30;;
59167;SDS011;70412;55.048;73.268;2023-12-20T06:08:57;54.40;;;19.52;;
59167;SDS011;70412;55.048;73.268;2023-12-20T06:12:00;61.45;;;19.52;;
59167;SDS011;70412;55.048;73.268;2023-12-20T06:15:02;60.65;;;21.20;;
59167;SDS011;70412;55.048;73.268;2023-12-20T06:18:06;58.90;;;20.52;;
59167;SDS011;70412;55.048;73.268;2023-12-20T06:21:08;57.38;;;22.08;;
59167;SDS011;70412;55.048;73.268;2023-12-20T06:24:14;57.03;;;21.63;;
59167;SDS011;70412;55.048;73.268;2023-12-20T06:27:17;55.90;;;20.70;;
59167;SDS011;70412;55.048;73.268;2023-12-20T06:30:19;50.50;;;19.52;;
59167;SDS011;70412;55.048;73.268;2023-12-20T06:33:22;66.47;;;21.88;;
59167;SDS011;70412;55.048;73.268;2023-12-20T06:36:24;63.05;;;22.77;;
59167;SDS011;70412;55.048;73.268;2023-12-20T06:39:27;47.58;;;18.70;;
59167;SDS011;70412;55.048;73.268;2023-12-20T06:42:30;58.10;;;22.45;;
59167;SDS011;70412;55.048;73.268;2023-12-20T06:45:33;65.07;;;22.55;;
59167;SDS011;70412;55.048;73.268;2023-12-20T06:48:36;80.20;;;25.70;;
59167;SDS011;70412;55.048;73.268;2023-12-20T06:51:39;85.80;;;26.90;;
59167;SDS011;70412;55.048;73.268;2023-12-20T06:54:42;94.80;;;30.88;;
59167;SDS011;70412;55.048;73.268;2023-12-20T06:57:45;91.43;;;29.05;;
59167;SDS011;70412;55.048;73.268;2023-12-20T07:00:48;91.38;;;29.92;;
59167;SDS011;70412;55.048;73.268;2023-12-20T07:03:50;67.47;;;24.33;;
59167;SDS011;70412;55.048;73.268;2023-12-20T07:06:53;62.63;;;25.27;;
59167;SDS011;70412;55.048;73.268;2023-12-20T07:10:00;70.56;;;29.08;;
59167;SDS011;70412;55.048;73.268;2023-12-20T07:13:02;70.05;;;28.90;;
59167;SDS011;70412;55.048;73.268;2023-12-20T07:16:05;60.92;;;23.80;;
59167;SDS011;70412;55.048;73.268;2023-12-20T07:19:10;103.10;;;32.70;;
59167;SDS011;70412;55.048;73.268;2023-12-20T07:22:13;75.47;;;26.52;;
59167;SDS011;70412;55.048;73.268;2023-12-20T07:25:15;57.20;;;20.48;;
59167;SDS011;70412;55.048;73.268;2023-12-20T07:28:18;70.18;;;25.90;;
59167;SDS011;70412;55.048;73.268;2023-12-20T07:31:20;115.85;;;41.63;;
59167;SDS011;70412;55.048;73.268;2023-12-20T07:34:23;88.18;;;31.02;;
59167;SDS011;70412;55.048;73.268;2023-12-20T07:37:25;112.25;;;38.97;;
59167;SDS011;70412;55.048;73.268;2023-12-20T07:40:31;91.85;;;31.88;;
59167;SDS011;70412;55.048;73.268;2023-12-20T07:43:33;75.82;;;26.65;;
59167;SDS011;70412;55.048;73.268;2023-12-20T07:46:36;56.30;;;21.00;;
59167;SDS011;70412;55.048;73.268;2023-12-20T07:49:38;80.05;;;28.15;;
59167;SDS011;70412;55.048;73.268;2023-12-20T07:52:41;69.53;;;25.80;;
59167;SDS011;70412;55.048;73.268;2023-12-20T07:55:43;44.30;;;15.48;;
59167;SDS011;70412;55.048;73.268;2023-12-20T07:58:46;52.70;;;17.73;;
59167;SDS011;70412;55.048;73.268;2023-12-20T08:01:49;48.75;;;17.25;;
59167;SDS011;70412;55.048;73.268;2023-12-20T08:04:52;69.65;;;22.77;;
59167;SDS011;70412;55.048;73.268;2023-12-20T08:07:54;49.38;;;18.20;;
59167;SDS011;70412;55.048;73.268;2023-12-20T08:10:56;46.58;;;16.83;;
59167;SDS011;70412;55.048;73.268;2023-12-20T08:14:01;39.92;;;12.70;;
59167;SDS011;70412;55.048;73.268;2023-12-20T08:17:04;88.70;;;26.17;;
59167;SDS011;70412;55.048;73.268;2023-12-20T08:20:06;71.95;;;23.65;;
59167;SDS011;70412;55.048;73.268;2023-12-20T08:23:09;33.55;;;12.40;;
59167;SDS011;70412;55.048;73.268;2023-12-20T08:26:12;54.50;;;16.90;;
59167;SDS011;70412;55.048;73.268;2023-12-20T08:29:14;54.92;;;16.52;;
59167;SDS011;70412;55.048;73.268;2023-12-20T08:32:17;26.05;;;10.88;;
59167;SDS011;70412;55.048;73.268;2023-12-20T08:35:19;28.88;;;11.43;;
59167;SDS011;70412;55.048;73.268;2023-12-20T08:38:22;38.15;;;14.50;;
59167;SDS011;70412;55.048;73.268;2023-12-20T08:41:24;23.42;;;8.82;;
59167;SDS011;70412;55.048;73.268;2023-12-20T08:44:27;26.65;;;9.50;;
59167;SDS011;70412;55.048;73.268;2023-12-20T08:47:30;21.48;;;9.18;;
59167;SDS011;70412;55.048;73.268;2023-12-20T08:50:32;19.80;;;9.02;;
59167;SDS011;70412;55.048;73.268;2023-12-20T08:53:35;27.65;;;10.73;;
59167;SDS011;70412;55.048;73.268;2023-12-20T08:56:38;34.45;;;12.65;;
59167;SDS011;70412;55.048;73.268;2023-12-20T08:59:40;57.10;;;20.60;;
59167;SDS011;70412;55.048;73.268;2023-12-20T09:02:42;41.45;;;16.20;;
59167;SDS011;70412;55.048;73.268;2023-12-20T09:05:45;38.80;;;14.68;;
59167;SDS011;70412;55.048;73.268;2023-12-20T09:08:47;75.03;;;24.42;;
59167;SDS011;70412;55.048;73.268;2023-12-20T09:11:52;101.60;;;31.10;;
59167;SDS011;70412;55.048;73.268;2023-12-20T09:14:54;56.33;;;18.65;;
59167;SDS011;70412;55.048;73.268;2023-12-20T09:17:57;50.05;;;18.05;;
59167;SDS011;70412;55.048;73.268;2023-12-20T09:21:00;19.55;;;8.88;;
59167;SDS011;70412;55.048;73.268;2023-12-20T09:24:03;35.60;;;14.32;;
59167;SDS011;70412;55.048;73.268;2023-12-20T09:27:06;51.83;;;20.58;;
59167;SDS011;70412;55.048;73.268;2023-12-20T09:30:09;84.60;;;28.58;;
59167;SDS011;70412;55.048;73.268;2023-12-20T09:33:12;61.83;;;22.87;;
59167;SDS011;70412;55.048;73.268;2023-12-20T09:36:14;55.92;;;21.00;;
59167;SDS011;70412;55.048;73.268;2023-12-20T09:39:17;39.75;;;13.95;;
59167;SDS011;70412;55.048;73.268;2023-12-20T09:42:38;36.60;;;13.88;;
59167;SDS011;70412;55.048;73.268;2023-12-20T09:45:53;26.40;;;10.13;;
59167;SDS011;70412;55.048;73.268;2023-12-20T09:48:56;26.45;;;9.77;;
59167;SDS011;70412;55.048;73.268;2023-12-20T09:51:59;22.70;;;8.90;;
59167;SDS011;70412;55.048;73.268;2023-12-20T09:55:03;39.22;;;14.80;;
59167;SDS011;70412;55.048;73.268;2023-12-20T09:58:09;38.85;;;15.43;;
59167;SDS011;70412;55.048;73.268;2023-12-20T10:01:12;33.22;;;12.98;;
59167;SDS011;70412;55.048;73.268;2023-12-20T10:04:15;32.72;;;12.60;;
59167;SDS011;70412;55.048;73.268;2023-12-20T10:07:18;49.45;;;15.68;;
59167;SDS011;70412;55.048;73.268;2023-12-20T10:10:21;25.17;;;8.75;;
59167;SDS011;70412;55.048;73.268;2023-12-20T10:13:24;34.50;;;11.38;;
59167;SDS011;70412;55.048;73.268;2023-12-20T10:16:27;45.40;;;16.20;;
59167;SDS011;70412;55.048;73.268;2023-12-20T10:19:30;57.03;;;23.25;;
59167;SDS011;70412;55.048;73.268;2023-12-20T10:22:33;57.85;;;21.83;;
59167;SDS011;70412;55.048;73.268;2023-12-20T10:25:38;92.90;;;27.45;;
59167;SDS011;70412;55.048;73.268;2023-12-20T10:28:43;81.25;;;25.20;;
59167;SDS011;70412;55.048;73.268;2023-12-20T10:31:49;78.07;;;24.99;;
59167;SDS011;70412;55.048;73.268;2023-12-20T10:34:52;81.70;;;29.92;;
59167;SDS011;70412;55.048;73.268;2023-12-20T10:37:56;48.63;;;20.60;;
59167;SDS011;70412;55.048;73.268;2023-12-20T10:40:58;41.90;;;16.92;;
59167;SDS011;70412;55.048;73.268;2023-12-20T10:44:03;44.30;;;15.23;;
59167;SDS011;70412;55.048;73.268;2023-12-20T10:47:09;43.92;;;15.77;;
59167;SDS011;70412;55.048;73.268;2023-12-20T10:50:14;42.10;;;14.10;;
59167;SDS011;70412;55.048;73.268;2023-12-20T10:53:18;48.38;;;18.02;;
59167;SDS011;70412;55.048;73.268;2023-12-20T10:56:23;76.67;;;28.40;;
59167;SDS011;70412;55.048;73.268;2023-12-20T10:59:25;87.20;;;30.50;;
59167;SDS011;70412;55.048;73.268;2023-12-20T11:02:35;67.30;;;24.13;;
59167;SDS011;70412;55.048;73.268;2023-12-20T11:05:52;68.88;;;24.33;;
59167;SDS011;70412;55.048;73.268;2023-12-20T11:09:16;75.63;;;23.80;;
59167;SDS011;70412;55.048;73.268;2023-12-20T11:15:46;50.20;;;20.67;;
59167;SDS011;70412;55.048;73.268;2023-12-20T11:18:50;76.03;;;27.20;;
59167;SDS011;70412;55.048;73.268;2023-12-20T11:21:53;68.65;;;23.23;;
59167;SDS011;70412;55.048;73.268;2023-12-20T11:25:13;43.38;;;18.60;;
59167;SDS011;70412;55.048;73.268;2023-12-20T11:28:16;54.30;;;18.65;;
59167;SDS011;70412;55.048;73.268;2023-12-20T11:31:23;44.60;;;17.45;;
59167;SDS011;70412;55.048;73.268;2023-12-20T11:34:31;78.45;;;24.50;;
59167;SDS011;70412;55.048;73.268;2023-12-20T11:37:35;93.13;;;29.20;;
59167;SDS011;70412;55.048;73.268;2023-12-20T11:40:39;52.80;;;20.55;;
59167;SDS011;70412;55.048;73.268;2023-12-20T11:43:43;54.30;;;20.80;;
59167;SDS011;70412;55.048;73.268;2023-12-20T11:46:46;64.07;;;20.67;;
59167;SDS011;70412;55.048;73.268;2023-12-20T11:49:49;54.65;;;18.48;;
59167;SDS011;70412;55.048;73.268;2023-12-20T11:52:52;52.25;;;19.63;;
59167;SDS011;70412;55.048;73.268;2023-12-20T11:55:56;49.00;;;18.23;;
59167;SDS011;70412;55.048;73.268;2023-12-20T11:58:59;42.40;;;19.33;;
59167;SDS011;70412;55.048;73.268;2023-12-20T12:02:01;45.47;;;18.88;;
59167;SDS011;70412;55.048;73.268;2023-12-20T12:05:05;50.47;;;18.30;;
59167;SDS011;70412;55.048;73.268;2023-12-20T12:08:08;53.80;;;20.65;;
59167;SDS011;70412;55.048;73.268;2023-12-20T12:11:10;42.20;;;15.60;;
59167;SDS011;70412;55.048;73.268;2023-12-20T12:14:13;47.20;;;17.80;;
59167;SDS011;70412;55.048;73.268;2023-12-20T12:17:16;61.40;;;20.17;;
59167;SDS011;70412;55.048;73.268;2023-12-20T12:20:36;55.92;;;22.67;;
59167;SDS011;70412;55.048;73.268;2023-12-20T12:23:45;55.33;;;19.48;;
59167;SDS011;70412;55.048;73.268;2023-12-20T12:26:51;53.58;;;17.50;;
59167;SDS011;70412;55.048;73.268;2023-12-20T12:30:03;52.95;;;19.27;;
59167;SDS011;70412;55.048;73.268;2023-12-20T12:33:08;57.97;;;19.40;;
59167;SDS011;70412;55.048;73.268;2023-12-20T12:36:11;54.72;;;20.40;;
59167;SDS011;70412;55.048;73.268;2023-12-20T12:39:17;57.50;;;18.05;;
59167;SDS011;70412;55.048;73.268;2023-12-20T12:42:20;42.22;;;18.27;;
59167;SDS011;70412;55.048;73.268;2023-12-20T12:45:23;48.35;;;17.83;;
59167;SDS011;70412;55.048;73.268;2023-12-20T12:48:37;58.83;;;21.20;;
59167;SDS011;70412;55.048;73.268;2023-12-20T12:51:40;37.38;;;13.38;;
59167;SDS011;70412;55.048;73.268;2023-12-20T12:54:44;32.80;;;12.65;;
59167;SDS011;70412;55.048;73.268;2023-12-20T12:57:47;40.10;;;14.73;;
59167;SDS011;70412;55.048;73.268;2023-12-20T13:00:49;35.53;;;13.25;;
59167;SDS011;70412;55.048;73.268;2023-12-20T13:04:06;38.15;;;13.27;;
59167;SDS011;70412;55.048;73.268;2023-12-20T13:07:12;30.65;;;10.27;;
59167;SDS011;70412;55.048;73.268;2023-12-20T13:10:18;40.10;;;16.70;;
59167;SDS011;70412;55.048;73.268;2023-12-20T13:13:20;39.78;;;16.47;;
59167;SDS011;70412;55.048;73.268;2023-12-20T13:16:26;40.63;;;15.18;;
59167;SDS011;70412;55.048;73.268;2023-12-20T13:19:28;35.30;;;15.13;;
59167;SDS011;70412;55.048;73.268;2023-12-20T13:22:38;40.70;;;13.80;;
59167;SDS011;70412;55.048;73.268;2023-12-20T13:25:41;77.25;;;15.07;;
59167;SDS011;70412;55.048;73.268;2023-12-20T13:28:44;151.88;;;66.10;;
59167;SDS011;70412;55.048;73.268;2023-12-20T13:31:47;118.35;;;43.15;;
59167;SDS011;70412;55.048;73.268;2023-12-20T13:34:58;171.98;;;62.60;;
59167;SDS011;70412;55.048;73.268;2023-12-20T13:38:15;182.98;;;66.00;;
59167;SDS011;70412;55.048;73.268;2023-12-20T13:41:18;124.07;;;45.50;;
59167;SDS011;70412;55.048;73.268;2023-12-20T13:44:21;163.88;;;59.80;;
59167;SDS011;70412;55.048;73.268;2023-12-20T13:47:25;195.70;;;76.07;;
59167;SDS011;70412;55.048;73.268;2023-12-20T13:50:41;49.20;;;21.58;;
59167;SDS011;70412;55.048;73.268;2023-12-20T13:53:43;85.95;;;25.91;;
59167;SDS011;70412;55.048;73.268;2023-12-20T13:56:55;36.35;;;16.27;;
59167;SDS011;70412;55.048;73.268;2023-12-20T13:59:59;49.70;;;17.02;;
59167;SDS011;70412;55.048;73.268;2023-12-20T14:03:03;137.05;;;36.97;;
59167;SDS011;70412;55.048;73.268;2023-12-20T14:06:06;62.67;;;19.38;;
59167;SDS011;70412;55.048;73.268;2023-12-20T14:09:10;33.67;;;12.95;;
59167;SDS011;70412;55.048;73.268;2023-12-20T14:12:14;42.65;;;17.02;;
59167;SDS011;70412;55.048;73.268;2023-12-20T14:15:17;47.35;;;16.85;;
59167;SDS011;70412;55.048;73.268;2023-12-20T14:18:20;413.70;;;87.18;;
59167;SDS011;70412;55.048;73.268;2023-12-20T14:21:23;287.40;;;99.15;;
59167;SDS011;70412;55.048;73.268;2023-12-20T14:24:26;252.48;;;83.00;;
59167;SDS011;70412;55.048;73.268;2023-12-20T14:27:28;66.97;;;23.13;;
59167;SDS011;70412;55.048;73.268;2023-12-20T14:30:31;51.28;;;23.05;;
59167;SDS011;70412;55.048;73.268;2023-12-20T14:33:34;38.83;;;15.85;;
59167;SDS011;70412;55.048;73.268;2023-12-20T14:36:37;30.67;;;11.35;;
59167;SDS011;70412;55.048;73.268;2023-12-20T14:39:40;30.17;;;11.10;;
59167;SDS011;70412;55.048;73.268;2023-12-20T14:42:43;31.33;;;11.50;;
59167;SDS011;70412;55.048;73.268;2023-12-20T14:45:46;30.88;;;11.75;;
59167;SDS011;70412;55.048;73.268;2023-12-20T14:48:48;34.80;;;12.98;;
59167;SDS011;70412;55.048;73.268;2023-12-20T14:51:51;29.20;;;10.77;;
59167;SDS011;70412;55.048;73.268;2023-12-20T14:54:55;30.88;;;11.65;;
59167;SDS011;70412;55.048;73.268;2023-12-20T14:57:58;39.35;;;13.85;;
59167;SDS011;70412;55.048;73.268;2023-12-20T15:01:01;37.85;;;13.82;;
59167;SDS011;70412;55.048;73.268;2023-12-20T15:04:06;37.45;;;13.43;;
59167;SDS011;70412;55.048;73.268;2023-12-20T15:07:10;41.33;;;15.60;;
59167;SDS011;70412;55.048;73.268;2023-12-20T15:10:12;41.65;;;15.57;;
59167;SDS011;70412;55.048;73.268;2023-12-20T15:13:15;39.38;;;13.85;;
59167;SDS011;70412;55.048;73.268;2023-12-20T15:16:18;51.42;;;16.27;;
59167;SDS011;70412;55.048;73.268;2023-12-20T15:19:20;40.47;;;15.82;;
59167;SDS011;70412;55.048;73.268;2023-12-20T15:22:23;41.38;;;15.73;;
59167;SDS011;70412;55.048;73.268;2023-12-20T15:25:27;41.00;;;14.45;;
59167;SDS011;70412;55.048;73.268;2023-12-20T15:28:30;45.55;;;15.80;;
59167;SDS011;70412;55.048;73.268;2023-12-20T15:31:32;39.35;;;13.90;;
59167;SDS011;70412;55.048;73.268;2023-12-20T15:34:35;49.46;;;16.58;;
59167;SDS011;70412;55.048;73.268;2023-12-20T15:37:38;44.15;;;17.67;;
59167;SDS011;70412;55.048;73.268;2023-12-20T15:40:41;43.78;;;18.23;;
59167;SDS011;70412;55.048;73.268;2023-12-20T15:43:43;41.15;;;15.40;;
59167;SDS011;70412;55.048;73.268;2023-12-20T15:46:47;117.60;;;35.53;;
59167;SDS011;70412;55.048;73.268;2023-12-20T15:49:49;45.28;;;15.73;;
59167;SDS011;70412;55.048;73.268;2023-12-20T15:52:52;40.00;;;14.27;;
59167;SDS011;70412;55.048;73.268;2023-12-20T15:55:54;46.47;;;18.67;;
59167;SDS011;70412;55.048;73.268;2023-12-20T15:58:56;62.33;;;22.02;;
59167;SDS011;70412;55.048;73.268;2023-12-20T16:02:00;39.58;;;13.73;;
59167;SDS011;70412;55.048;73.268;2023-12-20T16:05:05;50.17;;;18.50;;
59167;SDS011;70412;55.048;73.268;2023-12-20T16:08:07;40.42;;;13.63;;
59167;SDS011;70412;55.048;73.268;2023-12-20T16:11:10;36.42;;;15.07;;
59167;SDS011;70412;55.048;73.268;2023-12-20T16:14:14;34.45;;;11.70;;
59167;SDS011;70412;55.048;73.268;2023-12-20T16:17:27;37.80;;;14.07;;
59167;SDS011;70412;55.048;73.268;2023-12-20T16:20:29;32.65;;;10.38;;
59167;SDS011;70412;55.048;73.268;2023-12-20T16:23:32;46.50;;;15.05;;
59167;SDS011;70412;55.048;73.268;2023-12-20T16:26:35;28.33;;;9.90;;
59167;SDS011;70412;55.048;73.268;2023-12-20T16:29:37;39.63;;;13.32;;
59167;SDS011;70412;55.048;73.268;2023-12-20T16:32:40;44.05;;;13.93;;
59167;SDS011;70412;55.048;73.268;2023-12-20T16:35:42;28.90;;;9.13;;
59167;SDS011;70412;55.048;73.268;2023-12-20T16:38:45;31.30;;;11.15;;
59167;SDS011;70412;55.048;73.268;2023-12-20T16:41:47;35.83;;;10.75;;
59167;SDS011;70412;55.048;73.268;2023-12-20T16:44:53;43.63;;;13.82;;
59167;SDS011;70412;55.048;73.268;2023-12-20T16:47:56;35.92;;;13.43;;
59167;SDS011;70412;55.048;73.268;2023-12-20T16:50:59;28.33;;;8.55;;
59167;SDS011;70412;55.048;73.268;2023-12-20T16:54:01;28.67;;;9.80;;
59167;SDS011;70412;55.048;73.268;2023-12-20T16:57:04;29.88;;;10.50;;
59167;SDS011;70412;55.048;73.268;2023-12-20T17:00:06;32.92;;;10.75;;
59167;SDS011;70412;55.048;73.268;2023-12-20T17:03:12;32.30;;;8.55;;
59167;SDS011;70412;55.048;73.268;2023-12-20T17:06:14;27.35;;;10.05;;
59167;SDS011;70412;55.048;73.268;2023-12-20T17:09:17;26.42;;;9.02;;
59167;SDS011;70412;55.048;73.268;2023-12-20T17:12:21;25.95;;;8.95;;
59167;SDS011;70412;55.048;73.268;2023-12-20T17:15:28;27.60;;;9.06;;
59167;SDS011;70412;55.048;73.268;2023-12-20T17:18:34;21.90;;;7.77;;
59167;SDS011;70412;55.048;73.268;2023-12-20T17:21:37;27.25;;;9.45;;
59167;SDS011;70412;55.048;73.268;2023-12-20T17:24:39;16.90;;;6.10;;
59167;SDS011;70412;55.048;73.268;2023-12-20T17:27:41;20.85;;;7.32;;
59167;SDS011;70412;55.048;73.268;2023-12-20T17:30:44;18.30;;;7.35;;
59167;SDS011;70412;55.048;73.268;2023-12-20T17:33:46;19.27;;;7.00;;
59167;SDS011;70412;55.048;73.268;2023-12-20T17:36:48;16.95;;;6.93;;
59167;SDS011;70412;55.048;73.268;2023-12-20T17:39:51;10.73;;;4.30;;